Time;durP1;ratioP1;P1;durP2;ratioP2;P2;SDS_P1;SDS_P2;PMS_P1;PMS_P2;Temp;Humidity;BMP_temperature;BMP_pressure;BME280_temperature;BME280_humidity;BME280_pressure;Samples;Min_cycle;Max_cycle;Signal;HPM_P1;HPM_P2
2022/12/22 03:26:19;;;;;;;23.27;16.13;;;8.90;99.90;;;;;;5052379;28;20048;-68
2022/12/22 03:28:45;;;;;;;25.17;16.92;;;8.90;99.90;;;;;;5052357;28;20048;-68
2022/12/22 03:31:11;;;;;;;24.42;16.15;;;8.80;99.90;;;;;;5035791;28;20512;-68
2022/12/22 03:33:37;;;;;;;26.02;17.88;;;8.80;99.90;;;;;;5033226;28;20037;-69
2022/12/22 03:36:04;;;;;;;24.63;16.20;;;8.70;99.90;;;;;;5051518;28;20056;-68
2022/12/22 03:38:29;;;;;;;25.45;15.98;;;8.80;99.90;;;;;;5052366;28;20049;-68
2022/12/22 03:40:55;;;;;;;26.90;16.83;;;8.70;99.90;;;;;;5052023;28;20119;-68
2022/12/22 03:48:34;;;;;;;21.75;15.88;;;8.80;99.90;;;;;;5067628;28;20048;-68
2022/12/22 03:50:59;;;;;;;22.17;15.75;;;8.90;99.90;;;;;;5034979;28;20033;-68
2022/12/22 03:53:25;;;;;;;22.95;16.33;;;8.90;99.90;;;;;;5034915;28;20037;-68
2022/12/22 03:55:50;;;;;;;24.13;16.73;;;8.90;99.90;;;;;;5051975;28;20504;-68
2022/12/22 03:58:16;;;;;;;22.15;16.42;;;8.90;99.90;;;;;;5051901;28;20128;-68
2022/12/22 04:00:42;;;;;;;22.63;15.90;;;8.90;99.90;;;;;;5035557;28;20052;-68
2022/12/22 04:03:07;;;;;;;22.58;16.30;;;8.90;99.90;;;;;;5033206;28;20045;-68
2022/12/22 04:05:33;;;;;;;23.13;16.30;;;8.90;99.90;;;;;;5034492;28;20033;-68
2022/12/22 04:07:58;;;;;;;23.85;16.10;;;8.90;99.90;;;;;;5051015;28;20068;-68
2022/12/22 04:13:08;;;;;;;26.55;16.45;;;8.80;99.90;;;;;;5050695;28;20049;-68
2022/12/22 04:15:33;;;;;;;24.00;16.95;;;8.80;99.90;;;;;;5051633;28;20048;-68
2022/12/22 04:17:59;;;;;;;24.30;16.35;;;8.80;99.90;;;;;;5052015;28;20139;-68
2022/12/22 04:20:26;;;;;;;27.70;17.50;;;8.80;99.90;;;;;;5035441;28;20528;-68
2022/12/22 04:22:52;;;;;;;23.92;15.93;;;8.70;99.90;;;;;;5050644;28;20490;-68
2022/12/22 04:25:18;;;;;;;24.48;15.82;;;8.70;99.90;;;;;;5037778;28;20118;-68
2022/12/22 04:27:44;;;;;;;23.95;16.20;;;8.80;99.90;;;;;;5055671;28;20084;-68
2022/12/22 04:30:10;;;;;;;25.20;17.15;;;8.80;99.90;;;;;;5055831;28;20055;-68
2022/12/22 04:32:35;;;;;;;26.77;17.58;;;8.80;99.90;;;;;;5069500;28;20056;-68
2022/12/22 04:35:01;;;;;;;26.60;15.85;;;8.80;99.90;;;;;;5037310;28;20041;-68
2022/12/22 04:37:27;;;;;;;23.25;15.77;;;8.80;99.90;;;;;;5039067;28;20036;-68
2022/12/22 04:39:53;;;;;;;24.20;16.17;;;8.70;99.90;;;;;;5038825;28;20045;-68
2022/12/22 04:42:18;;;;;;;25.13;16.83;;;8.80;99.90;;;;;;5037875;28;20052;-68
2022/12/22 04:44:44;;;;;;;25.38;16.92;;;8.80;99.90;;;;;;5055611;28;20037;-68
2022/12/22 04:47:09;;;;;;;25.60;15.90;;;8.90;99.90;;;;;;5055290;28;20512;-68
2022/12/22 04:49:35;;;;;;;25.17;16.35;;;8.90;99.90;;;;;;5038560;28;20048;-68
2022/12/22 04:52:00;;;;;;;26.67;15.35;;;8.90;99.90;;;;;;5054400;28;20044;-68
2022/12/22 04:54:26;;;;;;;27.88;16.73;;;8.90;99.90;;;;;;5055480;28;20041;-68
2022/12/22 04:56:52;;;;;;;29.08;16.80;;;8.90;99.90;;;;;;5038831;28;20098;-68
2022/12/22 04:59:17;;;;;;;27.75;16.63;;;8.90;99.90;;;;;;5055140;28;20080;-68
2022/12/22 05:01:43;;;;;;;26.42;16.38;;;8.80;99.90;;;;;;5054196;28;20113;-68
2022/12/22 05:04:09;;;;;;;29.05;16.40;;;8.80;99.90;;;;;;5053711;28;20053;-68
2022/12/22 05:06:34;;;;;;;26.50;15.73;;;8.80;99.90;;;;;;5036755;28;20033;-68
2022/12/22 05:09:00;;;;;;;30.27;16.67;;;8.80;99.90;;;;;;5038310;28;20118;-68
2022/12/22 05:11:25;;;;;;;28.30;16.58;;;8.80;99.90;;;;;;5053874;28;20405;-68
2022/12/22 05:13:51;;;;;;;38.17;17.60;;;8.70;99.90;;;;;;5038003;28;20132;-68
2022/12/22 05:16:17;;;;;;;35.08;18.33;;;8.70;99.90;;;;;;5054239;28;20052;-68
2022/12/22 05:18:44;;;;;;;37.53;17.55;;;8.60;99.90;;;;;;5026410;28;20449;-68
2022/12/22 05:21:12;;;;;;;47.72;18.98;;;8.60;99.90;;;;;;5034400;28;20083;-68
2022/12/22 05:23:38;;;;;;;41.50;18.50;;;8.60;99.90;;;;;;5037866;28;20049;-68
2022/12/22 05:26:04;;;;;;;52.20;19.77;;;8.60;99.90;;;;;;5054522;28;20029;-68
2022/12/22 05:28:31;;;;;;;44.63;18.90;;;8.60;99.90;;;;;;5036713;28;20060;-68
2022/12/22 05:31:01;;;;;;;36.90;18.38;;;8.70;99.90;;;;;;5054738;28;20037;-68
2022/12/22 05:33:26;;;;;;;46.15;19.20;;;8.60;99.90;;;;;;5051307;28;20497;-68
2022/12/22 05:35:52;;;;;;;43.05;18.55;;;8.60;99.90;;;;;;5053425;28;20044;-68
2022/12/22 05:38:18;;;;;;;46.95;19.65;;;8.60;99.90;;;;;;5054365;28;20037;-68
2022/12/22 05:40:43;;;;;;;44.50;19.75;;;8.60;99.90;;;;;;5054205;28;20048;-68
2022/12/22 05:43:09;;;;;;;49.63;20.45;;;8.60;99.90;;;;;;5053295;28;20068;-68
2022/12/22 05:45:34;;;;;;;65.35;21.92;;;8.60;99.90;;;;;;5037609;28;20037;-68
2022/12/22 05:48:00;;;;;;;55.72;21.05;;;8.60;99.90;;;;;;5053134;28;20040;-68
2022/12/22 05:50:26;;;;;;;52.80;20.52;;;8.60;99.90;;;;;;5037568;28;20422;-68
2022/12/22 05:52:52;;;;;;;48.05;20.05;;;8.60;99.90;;;;;;5036606;28;20036;-74
2022/12/22 05:55:18;;;;;;;50.47;21.42;;;8.60;99.90;;;;;;5054013;28;20037;-68
2022/12/22 05:57:44;;;;;;;49.85;21.05;;;8.60;99.90;;;;;;5054163;28;20033;-69
2022/12/22 06:00:13;;;;;;;46.08;18.40;;;8.50;99.90;;;;;;5054210;28;20044;-68
2022/12/22 06:02:39;;;;;;;42.47;17.88;;;8.60;99.90;;;;;;5051351;28;20045;-68
2022/12/22 06:05:05;;;;;;;41.47;19.08;;;8.60;99.90;;;;;;5053983;28;20047;-68
2022/12/22 06:07:31;;;;;;;49.63;20.23;;;8.60;99.90;;;;;;5036718;28;20120;-68
2022/12/22 06:09:57;;;;;;;45.30;18.27;;;8.60;99.90;;;;;;5053762;28;20128;-68
2022/12/22 06:12:22;;;;;;;48.28;18.67;;;8.50;99.90;;;;;;5053062;28;20131;-68
2022/12/22 06:14:48;;;;;;;44.22;19.67;;;8.50;99.90;;;;;;5036211;28;20037;-68
2022/12/22 06:17:13;;;;;;;42.20;17.85;;;8.50;99.90;;;;;;5068652;28;20134;-68
2022/12/22 06:19:39;;;;;;;44.55;18.90;;;8.50;99.90;;;;;;5053780;28;20049;-68
2022/12/22 06:22:04;;;;;;;44.58;19.13;;;8.40;99.90;;;;;;5052590;28;20051;-68
2022/12/22 06:24:30;;;;;;;46.80;19.15;;;8.30;99.90;;;;;;5033085;28;20076;-68
2022/12/22 06:26:59;;;;;;;43.80;17.92;;;8.40;99.90;;;;;;5033716;28;20033;-68
2022/12/22 06:29:24;;;;;;;48.13;19.35;;;8.30;99.90;;;;;;5033573;28;20045;-68
2022/12/22 06:31:50;;;;;;;30.92;15.25;;;8.30;99.90;;;;;;5037525;28;20048;-68
2022/12/22 06:34:18;;;;;;;37.65;17.23;;;8.30;99.90;;;;;;5035978;28;20075;-68
2022/12/22 06:36:45;;;;;;;38.50;18.05;;;8.40;99.90;;;;;;5016851;28;20052;-69
2022/12/22 06:39:11;;;;;;;38.67;18.15;;;8.40;99.90;;;;;;5033296;28;20049;-69
2022/12/22 06:44:21;;;;;;;38.90;18.58;;;8.50;99.90;;;;;;5052170;28;20052;-69
2022/12/22 06:46:50;;;;;;;35.97;17.45;;;8.50;99.90;;;;;;5052211;28;20044;-69
2022/12/22 06:49:15;;;;;;;40.28;18.73;;;8.50;99.90;;;;;;5052750;28;20037;-69
2022/12/22 06:51:41;;;;;;;36.80;18.40;;;8.50;99.90;;;;;;5051071;28;20041;-69
2022/12/22 06:54:06;;;;;;;34.03;17.17;;;8.40;99.90;;;;;;5052836;28;20036;-69
2022/12/22 06:56:32;;;;;;;36.38;17.50;;;8.40;99.90;;;;;;5052095;28;20098;-69
2022/12/22 06:58:57;;;;;;;32.45;16.25;;;8.40;99.90;;;;;;5053127;28;20045;-69
2022/12/22 07:01:23;;;;;;;30.73;14.70;;;8.40;99.90;;;;;;5047860;28;20025;-69
2022/12/22 07:03:49;;;;;;;28.88;13.68;;;8.30;99.90;;;;;;5032462;28;20053;-69
2022/12/22 07:06:17;;;;;;;32.17;14.93;;;8.10;99.90;;;;;;5047499;28;20032;-69
2022/12/22 07:08:43;;;;;;;30.17;13.57;;;7.90;99.90;;;;;;5052664;28;20124;-69
2022/12/22 07:11:09;;;;;;;26.20;12.50;;;7.90;99.90;;;;;;5052258;28;20115;-69
2022/12/22 07:13:35;;;;;;;27.00;13.85;;;7.80;99.90;;;;;;5052509;28;20560;-69
2022/12/22 07:16:02;;;;;;;25.77;13.25;;;7.90;99.90;;;;;;5051493;28;20032;-69
2022/12/22 07:18:30;;;;;;;21.73;11.00;;;7.90;99.90;;;;;;5051552;28;20124;-69
2022/12/22 07:20:56;;;;;;;22.95;11.98;;;7.80;99.90;;;;;;5052623;28;20063;-69
2022/12/22 07:23:21;;;;;;;15.98;9.18;;;7.70;99.90;;;;;;5050535;28;20493;-69
2022/12/22 07:25:47;;;;;;;19.48;8.43;;;7.50;99.90;;;;;;5049960;28;20098;-69
2022/12/22 07:28:12;;;;;;;20.42;9.90;;;7.50;99.90;;;;;;5043608;28;20075;-68
2022/12/22 07:30:38;;;;;;;46.05;11.68;;;7.50;99.90;;;;;;5038947;28;20441;-69
2022/12/22 07:33:04;;;;;;;27.33;13.50;;;7.50;99.90;;;;;;5022396;28;20447;-68
2022/12/22 07:35:29;;;;;;;31.42;15.95;;;7.50;99.90;;;;;;5030804;28;20033;-69
2022/12/22 07:37:55;;;;;;;36.92;16.33;;;7.50;99.90;;;;;;5051676;28;20037;-68
2022/12/22 07:40:21;;;;;;;39.38;16.70;;;7.50;99.90;;;;;;5049504;28;20094;-68
2022/12/22 07:42:46;;;;;;;40.75;17.75;;;7.50;99.90;;;;;;5050746;28;20497;-69
2022/12/22 07:45:16;;;;;;;36.25;16.85;;;7.50;99.90;;;;;;5033043;28;20033;-68
2022/12/22 07:47:42;;;;;;;36.63;15.90;;;7.50;99.90;;;;;;5031719;28;20107;-68
2022/12/22 07:50:28;;;;;;;41.28;16.95;;;7.50;99.90;;;;;;5022239;28;20489;-69
2022/12/22 07:52:55;;;;;;;34.95;14.32;;;7.50;99.90;;;;;;5048201;28;20045;-68
2022/12/22 07:55:21;;;;;;;30.48;14.13;;;7.60;99.90;;;;;;5050598;28;20041;-68
2022/12/22 07:57:47;;;;;;;30.30;14.35;;;7.60;99.90;;;;;;5039707;28;20094;-68
2022/12/22 08:00:13;;;;;;;31.38;14.60;;;7.50;99.90;;;;;;5034112;28;20033;-68
2022/12/22 08:02:39;;;;;;;27.50;12.63;;;7.60;99.90;;;;;;5034547;28;20046;-68
2022/12/22 08:05:05;;;;;;;28.77;13.68;;;7.50;99.90;;;;;;5048768;28;20086;-68
2022/12/22 08:07:31;;;;;;;26.73;12.60;;;7.40;99.90;;;;;;5052086;28;20115;-68
2022/12/22 08:09:57;;;;;;;25.83;12.93;;;7.40;99.90;;;;;;5041959;28;20505;-68
2022/12/22 08:12:23;;;;;;;25.63;11.65;;;7.40;99.90;;;;;;5051432;28;20516;-69
2022/12/22 08:14:49;;;;;;;25.27;11.75;;;7.40;99.90;;;;;;5032712;28;20037;-68
2022/12/22 08:17:14;;;;;;;27.92;11.95;;;7.50;99.90;;;;;;5034995;28;20111;-68
2022/12/22 08:19:40;;;;;;;29.05;12.25;;;7.40;99.90;;;;;;5034025;28;20037;-69
2022/12/22 08:22:06;;;;;;;30.10;12.52;;;7.40;99.90;;;;;;5046480;28;20124;-69
2022/12/22 08:24:32;;;;;;;32.20;13.02;;;7.40;99.90;;;;;;5046225;28;20029;-69
2022/12/22 08:27:10;;;;;;;27.67;12.68;;;7.40;99.90;;;;;;5032597;28;20036;-68
2022/12/22 08:29:48;;;;;;;31.25;12.68;;;7.40;99.90;;;;;;5044101;28;20083;-68
2022/12/22 08:32:14;;;;;;;32.03;12.48;;;7.40;99.90;;;;;;5050704;28;20059;-68
2022/12/22 08:34:40;;;;;;;27.20;11.88;;;7.40;99.90;;;;;;5050539;28;20549;-69
2022/12/22 08:37:11;;;;;;;27.60;12.20;;;7.30;99.90;;;;;;5044101;28;20045;-69
2022/12/22 08:39:40;;;;;;;25.95;12.00;;;7.40;99.90;;;;;;5043297;28;20064;-69
2022/12/22 08:42:10;;;;;;;26.40;12.05;;;7.40;99.90;;;;;;5035632;28;20045;-69
2022/12/22 08:44:37;;;;;;;26.38;11.38;;;7.40;99.90;;;;;;5064722;28;20499;-68
2022/12/22 08:47:03;;;;;;;30.23;12.20;;;7.40;99.90;;;;;;5050343;28;20121;-69
2022/12/22 08:49:29;;;;;;;28.40;12.40;;;7.40;99.90;;;;;;5047825;28;20047;-69
2022/12/22 08:51:55;;;;;;;27.23;13.02;;;7.40;99.90;;;;;;5049339;28;20045;-68
2022/12/22 08:54:21;;;;;;;29.40;12.27;;;7.40;99.90;;;;;;5044662;28;20041;-69
2022/12/22 08:56:48;;;;;;;23.08;11.23;;;7.50;99.90;;;;;;5043288;28;20049;-69
2022/12/22 08:59:14;;;;;;;25.52;11.45;;;7.70;99.90;;;;;;5039263;28;20049;-69
2022/12/22 09:01:43;;;;;;;27.45;12.77;;;7.60;99.90;;;;;;5031385;28;20056;-68
2022/12/22 09:04:13;;;;;;;23.75;11.63;;;7.40;99.90;;;;;;5032989;28;20045;-69
2022/12/22 09:06:39;;;;;;;26.17;12.40;;;7.30;99.90;;;;;;5032452;28;20510;-69
2022/12/22 09:09:07;;;;;;;24.05;12.35;;;7.30;99.90;;;;;;5033977;28;20082;-69
2022/12/22 09:11:33;;;;;;;22.92;11.55;;;7.30;99.90;;;;;;5035015;28;20040;-68
2022/12/22 09:14:00;;;;;;;20.80;10.05;;;7.30;99.90;;;;;;5052241;28;20123;-69
2022/12/22 09:16:28;;;;;;;26.88;10.63;;;7.30;99.90;;;;;;5053512;28;20060;-69
2022/12/22 09:18:54;;;;;;;20.83;9.77;;;7.30;99.90;;;;;;5051774;28;20041;-68
2022/12/22 09:21:21;;;;;;;19.20;9.20;;;7.20;99.90;;;;;;5053343;28;20048;-68
2022/12/22 09:23:47;;;;;;;18.75;9.45;;;7.20;99.90;;;;;;5028353;28;20508;-68
2022/12/22 09:26:15;;;;;;;22.10;9.10;;;7.10;99.90;;;;;;5037929;28;20116;-69
2022/12/22 09:28:41;;;;;;;17.27;9.23;;;7.10;99.90;;;;;;5048104;28;20032;-69
2022/12/22 09:31:09;;;;;;;20.48;9.30;;;7.10;99.90;;;;;;5035274;28;20093;-68
2022/12/22 09:33:37;;;;;;;20.77;9.25;;;7.10;99.90;;;;;;5047918;28;20041;-69
2022/12/22 09:36:08;;;;;;;18.08;9.27;;;7.10;99.90;;;;;;5048769;28;20123;-69
2022/12/22 09:38:34;;;;;;;27.57;10.67;;;7.10;99.90;;;;;;5051025;28;20045;-69
2022/12/22 09:41:36;;;;;;;16.52;9.18;;;7.10;99.90;;;;;;5052392;28;20043;-69
2022/12/22 09:44:12;;;;;;;16.13;8.05;;;7.30;99.90;;;;;;5032463;28;20053;-69
2022/12/22 09:46:38;;;;;;;17.17;7.70;;;7.50;99.90;;;;;;5050411;28;20044;-69
2022/12/22 09:49:05;;;;;;;17.00;8.60;;;7.40;99.90;;;;;;5037736;28;20041;-69
2022/12/22 09:51:38;;;;;;;16.92;9.00;;;7.30;99.90;;;;;;5049226;28;20489;-69
2022/12/22 09:54:03;;;;;;;16.17;7.75;;;7.20;99.90;;;;;;5036039;28;20048;-69
2022/12/22 09:56:29;;;;;;;14.73;7.85;;;7.40;99.90;;;;;;5036462;28;20045;-69
2022/12/22 09:58:57;;;;;;;16.45;8.25;;;7.30;99.90;;;;;;5053702;28;20029;-69
2022/12/22 10:01:25;;;;;;;14.15;7.22;;;7.40;99.90;;;;;;5019642;28;20047;-69
2022/12/22 10:04:01;;;;;;;14.90;7.57;;;7.40;99.90;;;;;;5030465;28;20064;-69
2022/12/22 10:06:43;;;;;;;13.35;6.40;;;7.20;99.90;;;;;;5037150;28;20114;-69
2022/12/22 10:09:30;;;;;;;13.35;5.22;;;7.30;99.90;;;;;;5036051;28;20037;-68
2022/12/22 10:11:59;;;;;;;12.13;6.47;;;7.30;99.90;;;;;;5037156;28;20041;-68
2022/12/22 10:14:33;;;;;;;12.43;6.47;;;7.10;99.90;;;;;;5052449;28;20477;-68
2022/12/22 10:17:32;;;;;;;16.25;7.45;;;7.10;99.90;;;;;;5036152;28;20037;-68
2022/12/22 10:20:21;;;;;;;15.13;6.57;;;7.10;99.90;;;;;;5047393;28;20040;-68
2022/12/22 10:22:51;;;;;;;14.32;6.03;;;7.10;99.90;;;;;;5050655;28;20094;-68
2022/12/22 10:25:31;;;;;;;15.57;6.93;;;7.20;99.90;;;;;;5052740;28;20501;-68
2022/12/22 10:27:59;;;;;;;15.68;7.20;;;7.20;99.90;;;;;;5035246;28;20037;-69
2022/12/22 10:30:32;;;;;;;14.10;5.80;;;7.20;99.90;;;;;;5036621;28;20044;-68
2022/12/22 10:33:10;;;;;;;15.05;6.22;;;7.40;99.90;;;;;;5033912;28;20040;-68
2022/12/22 10:35:44;;;;;;;16.23;6.95;;;7.40;99.90;;;;;;5051253;28;20079;-68
2022/12/22 10:38:21;;;;;;;14.93;6.18;;;7.30;99.90;;;;;;5034334;28;20048;-68
2022/12/22 10:40:49;;;;;;;11.82;5.25;;;7.30;99.90;;;;;;5053111;28;20047;-68
2022/12/22 10:43:25;;;;;;;15.20;5.85;;;7.60;99.90;;;;;;5033940;28;20161;-68
2022/12/22 10:45:52;;;;;;;11.40;4.55;;;7.60;99.90;;;;;;5052953;28;20094;-68
2022/12/22 10:48:26;;;;;;;14.30;7.07;;;7.70;99.90;;;;;;5050212;28;20111;-68
2022/12/22 10:50:52;;;;;;;14.98;6.50;;;7.80;99.90;;;;;;5045758;28;20037;-68
2022/12/22 10:53:18;;;;;;;14.48;6.50;;;7.80;99.90;;;;;;5028881;28;20041;-68
2022/12/22 10:55:43;;;;;;;13.95;6.13;;;7.80;99.90;;;;;;5039543;28;20034;-68
2022/12/22 10:58:09;;;;;;;12.45;6.35;;;7.80;99.90;;;;;;5060222;28;20393;-68
2022/12/22 11:00:36;;;;;;;13.02;6.38;;;7.80;99.90;;;;;;5046768;28;20041;-68
2022/12/22 11:03:04;;;;;;;13.25;5.35;;;7.80;99.90;;;;;;5041502;28;20049;-68
2022/12/22 11:05:31;;;;;;;15.63;5.97;;;7.90;99.90;;;;;;5028217;28;20033;-68
2022/12/22 11:08:17;;;;;;;16.10;7.00;;;7.90;99.90;;;;;;5050757;28;20043;-68
2022/12/22 11:11:12;;;;;;;16.52;7.22;;;7.80;99.90;;;;;;5049738;28;20497;-68
2022/12/22 11:13:56;;;;;;;15.32;6.57;;;7.80;99.90;;;;;;5035524;28;20055;-68
2022/12/22 11:16:25;;;;;;;15.75;6.75;;;7.70;99.90;;;;;;5048091;28;20045;-68
2022/12/22 11:19:09;;;;;;;15.60;6.22;;;7.80;99.90;;;;;;5037469;28;20064;-68
2022/12/22 11:22:17;;;;;;;14.88;6.85;;;7.80;99.90;;;;;;5052662;28;20124;-68
2022/12/22 11:25:30;;;;;;;13.20;5.82;;;7.80;99.90;;;;;;5032683;28;20053;-68
2022/12/22 11:28:22;;;;;;;12.93;5.82;;;8.10;99.90;;;;;;5025025;28;20049;-68
2022/12/22 11:31:10;;;;;;;13.48;6.05;;;8.10;99.90;;;;;;5032455;28;20037;-68
2022/12/22 11:34:08;;;;;;;15.80;7.47;;;8.10;99.90;;;;;;5049111;28;20044;-68
2022/12/22 11:36:39;;;;;;;12.85;5.75;;;8.10;99.90;;;;;;5050701;28;20043;-68
2022/12/22 11:39:38;;;;;;;12.80;6.13;;;8.10;99.90;;;;;;5049494;28;20068;-68
2022/12/22 11:42:32;;;;;;;13.20;5.50;;;8.10;99.90;;;;;;5045381;28;20057;-68
2022/12/22 11:45:26;;;;;;;13.02;4.78;;;8.30;99.90;;;;;;5020508;28;20509;-68
2022/12/22 11:48:00;;;;;;;14.40;5.05;;;8.50;99.90;;;;;;5032359;28;20033;-68
2022/12/22 11:50:38;;;;;;;15.07;5.07;;;8.40;99.90;;;;;;5043278;28;20032;-68
2022/12/22 11:53:42;;;;;;;11.70;4.47;;;8.50;99.90;;;;;;5055743;28;20069;-68
2022/12/22 11:56:19;;;;;;;13.43;3.78;;;8.60;99.90;;;;;;5032217;28;20042;-68
2022/12/22 11:58:57;;;;;;;16.60;5.43;;;8.60;99.90;;;;;;5042763;28;20045;-68
2022/12/22 12:01:42;;;;;;;11.90;5.20;;;8.60;99.90;;;;;;5019754;28;20375;-68
2022/12/22 12:04:50;;;;;;;13.68;5.82;;;8.50;99.90;;;;;;5031458;28;20042;-68
2022/12/22 12:07:27;;;;;;;11.20;4.22;;;8.50;99.90;;;;;;5025604;28;20393;-68
2022/12/22 12:10:14;;;;;;;12.52;5.32;;;8.60;99.90;;;;;;5023131;28;20041;-68
2022/12/22 12:13:02;;;;;;;11.55;4.30;;;8.50;99.90;;;;;;5031626;28;20080;-68
2022/12/22 12:15:33;;;;;;;12.02;5.15;;;8.60;99.90;;;;;;5055080;28;20034;-68
2022/12/22 12:18:05;;;;;;;14.20;5.47;;;8.60;99.90;;;;;;5039553;28;20043;-68
2022/12/22 12:20:42;;;;;;;10.45;4.40;;;8.60;99.90;;;;;;5044438;28;20064;-68
2022/12/22 12:23:30;;;;;;;13.82;4.70;;;8.70;99.90;;;;;;5051645;28;20158;-68
2022/12/22 12:26:01;;;;;;;12.77;4.95;;;8.60;99.90;;;;;;5032352;28;20386;-68
2022/12/22 12:28:45;;;;;;;14.93;5.30;;;8.60;99.90;;;;;;5047085;28;20036;-68
2022/12/22 12:31:14;;;;;;;9.95;4.78;;;8.60;99.90;;;;;;5033072;28;20279;-68
2022/12/22 12:33:53;;;;;;;11.60;4.97;;;8.60;99.90;;;;;;5049544;28;20098;-68
2022/12/22 12:36:30;;;;;;;9.55;3.88;;;8.70;99.90;;;;;;5043793;28;20037;-68
2022/12/22 12:39:29;;;;;;;14.13;4.85;;;8.80;99.90;;;;;;5050347;28;20520;-68
2022/12/22 12:42:18;;;;;;;10.02;3.53;;;8.80;99.90;;;;;;5045031;28;20509;-68
2022/12/22 12:44:45;;;;;;;12.57;4.15;;;8.80;99.90;;;;;;5038943;28;20049;-68
2022/12/22 12:47:30;;;;;;;14.48;4.63;;;8.80;99.90;;;;;;5049072;28;20044;-68
2022/12/22 12:50:18;;;;;;;11.75;5.20;;;8.80;99.90;;;;;;5054839;28;20044;-68
2022/12/22 12:52:47;;;;;;;12.68;4.72;;;8.70;99.90;;;;;;5046070;28;20482;-68
2022/12/22 12:55:28;;;;;;;10.88;4.10;;;8.70;99.90;;;;;;5055530;28;20120;-68
2022/12/22 12:57:54;;;;;;;11.07;4.78;;;8.80;99.90;;;;;;5049417;28;20041;-68
2022/12/22 13:00:31;;;;;;;9.90;3.53;;;8.80;99.90;;;;;;5037316;28;20052;-68
2022/12/22 13:03:23;;;;;;;12.00;4.88;;;8.90;99.90;;;;;;5034780;28;20442;-68
2022/12/22 13:05:54;;;;;;;14.40;4.55;;;8.90;99.90;;;;;;5045930;28;20043;-68
2022/12/22 13:08:22;;;;;;;12.35;4.70;;;8.90;99.90;;;;;;5053766;28;20049;-68
2022/12/22 13:10:54;;;;;;;11.05;4.65;;;8.90;99.90;;;;;;5051485;28;20064;-68
2022/12/22 13:13:23;;;;;;;15.75;4.68;;;8.90;99.90;;;;;;5053060;28;20051;-68
2022/12/22 13:16:01;;;;;;;12.45;4.38;;;8.90;99.90;;;;;;5034485;28;20045;-69
2022/12/22 13:18:29;;;;;;;11.13;3.88;;;9.00;99.90;;;;;;5068988;28;20037;-68
2022/12/22 13:20:54;;;;;;;14.13;4.53;;;9.00;99.90;;;;;;5065818;28;20400;-68
2022/12/22 13:23:20;;;;;;;13.35;4.75;;;8.90;99.90;;;;;;5053572;28;20125;-68
2022/12/22 13:25:57;;;;;;;12.85;3.47;;;9.00;99.90;;;;;;5066236;28;20106;-68
2022/12/22 13:28:23;;;;;;;14.68;4.50;;;9.00;99.90;;;;;;5034861;28;20390;-68
2022/12/22 13:30:59;;;;;;;11.13;3.95;;;9.00;99.90;;;;;;5037291;28;20052;-68
2022/12/22 13:33:29;;;;;;;12.73;4.43;;;9.00;99.90;;;;;;5053073;28;20044;-68
2022/12/22 13:35:57;;;;;;;11.25;4.75;;;9.00;99.90;;;;;;5037680;28;20044;-68
2022/12/22 13:38:28;;;;;;;14.10;4.57;;;9.00;99.90;;;;;;5053888;28;20033;-68
2022/12/22 13:40:54;;;;;;;11.65;4.40;;;9.00;99.90;;;;;;5053296;28;20081;-68
2022/12/22 13:43:20;;;;;;;11.13;4.30;;;9.00;99.90;;;;;;5031940;28;20041;-69
2022/12/22 13:45:57;;;;;;;12.73;3.00;;;8.90;99.90;;;;;;5035844;28;20033;-69
2022/12/22 13:48:45;;;;;;;14.95;5.30;;;9.00;99.90;;;;;;5053714;28;20048;-68
2022/12/22 13:51:22;;;;;;;12.27;4.30;;;9.00;99.90;;;;;;5033877;28;20560;-68
2022/12/22 13:53:55;;;;;;;12.45;3.67;;;9.00;99.90;;;;;;5051706;28;20052;-68
2022/12/22 13:56:24;;;;;;;11.90;4.38;;;9.10;99.90;;;;;;5036239;28;20076;-69
2022/12/22 13:58:56;;;;;;;11.43;3.53;;;9.00;99.90;;;;;;5052765;28;20132;-68
2022/12/22 14:01:21;;;;;;;9.65;3.33;;;9.20;99.90;;;;;;5039249;28;20041;-68
2022/12/22 14:03:52;;;;;;;9.85;2.80;;;9.20;99.90;;;;;;5036489;28;20061;-68
2022/12/22 14:06:33;;;;;;;10.82;3.63;;;9.40;99.90;;;;;;5037037;28;20068;-68
2022/12/22 14:09:17;;;;;;;10.70;2.90;;;9.30;99.90;;;;;;5039223;28;20419;-68
2022/12/22 14:12:04;;;;;;;8.55;3.30;;;9.30;99.90;;;;;;5051338;28;20037;-68
2022/12/22 14:14:35;;;;;;;10.50;2.83;;;9.40;99.90;;;;;;5048757;28;20049;-68
2022/12/22 14:17:01;;;;;;;7.15;2.80;;;9.50;99.90;;;;;;5033267;28;20037;-68
2022/12/22 14:19:32;;;;;;;10.48;2.88;;;9.30;99.90;;;;;;5036998;28;20037;-68
2022/12/22 14:22:03;;;;;;;9.35;3.20;;;9.30;99.90;;;;;;5027030;28;20132;-68
2022/12/22 14:24:36;;;;;;;10.73;2.65;;;9.20;99.90;;;;;;5031359;28;20045;-69
2022/12/22 14:27:02;;;;;;;9.95;2.95;;;9.20;99.90;;;;;;5050241;28;20038;-68
2022/12/22 14:29:29;;;;;;;12.25;3.30;;;9.20;99.90;;;;;;5051905;28;20082;-68
2022/12/22 14:31:58;;;;;;;9.40;2.22;;;9.20;99.90;;;;;;5036279;28;20059;-68
2022/12/22 14:34:26;;;;;;;8.27;2.05;;;9.30;99.90;;;;;;5046915;28;20444;-69
2022/12/22 14:36:52;;;;;;;9.75;2.53;;;9.30;99.90;;;;;;5033483;28;20042;-68
2022/12/22 14:39:32;;;;;;;15.10;3.10;;;9.20;99.90;;;;;;5041480;28;20037;-68
2022/12/22 14:42:00;;;;;;;11.23;2.50;;;9.30;99.90;;;;;;5051171;28;20079;-68
2022/12/22 14:44:40;;;;;;;9.23;2.67;;;9.20;99.90;;;;;;5019266;28;20086;-68
2022/12/22 14:47:16;;;;;;;8.60;2.88;;;9.20;99.90;;;;;;5036279;28;20397;-68
2022/12/22 14:50:13;;;;;;;7.20;2.55;;;9.20;99.90;;;;;;5034243;28;20090;-68
2022/12/22 14:52:51;;;;;;;9.30;2.75;;;9.30;99.90;;;;;;5037112;28;20045;-68
2022/12/22 14:55:40;;;;;;;10.77;3.38;;;9.30;99.90;;;;;;5035873;28;20045;-73
2022/12/22 14:58:09;;;;;;;10.05;2.80;;;9.20;99.90;;;;;;5024986;28;20140;-70
2022/12/22 15:00:46;;;;;;;9.90;3.15;;;9.10;99.90;;;;;;5053067;28;20041;-70
2022/12/22 15:03:28;;;;;;;7.45;3.10;;;9.00;99.90;;;;;;5051305;28;20049;-70
2022/12/22 15:05:54;;;;;;;10.45;3.63;;;9.00;99.90;;;;;;5051911;28;20044;-75
2022/12/22 15:08:41;;;;;;;8.38;3.63;;;9.00;99.90;;;;;;5047168;28;20037;-73
2022/12/22 15:11:14;;;;;;;7.70;2.83;;;9.00;99.90;;;;;;5047872;28;20090;-68
2022/12/22 15:13:39;;;;;;;9.95;3.60;;;9.00;99.90;;;;;;5061686;28;20041;-69
2022/12/22 15:16:05;;;;;;;7.85;3.20;;;9.00;99.90;;;;;;5065746;28;20467;-69
2022/12/22 15:18:31;;;;;;;12.32;3.20;;;9.00;99.90;;;;;;5050553;28;20072;-69
2022/12/22 15:20:57;;;;;;;9.98;3.03;;;9.10;99.90;;;;;;5029757;28;20041;-69
2022/12/22 15:23:23;;;;;;;8.25;2.47;;;9.10;99.90;;;;;;5042661;28;20103;-69
2022/12/22 15:25:49;;;;;;;8.30;2.47;;;9.10;99.90;;;;;;5035682;28;20090;-70
2022/12/22 15:28:14;;;;;;;8.40;2.55;;;9.10;99.90;;;;;;5052666;28;20045;-70
2022/12/22 15:30:40;;;;;;;8.00;2.53;;;9.10;99.90;;;;;;5032090;28;20044;-70
2022/12/22 15:33:15;;;;;;;12.07;3.15;;;9.10;99.90;;;;;;5041584;28;20041;-70
2022/12/22 15:35:41;;;;;;;9.13;2.70;;;9.10;99.90;;;;;;5034208;28;20037;-70
2022/12/22 15:38:16;;;;;;;7.65;2.60;;;9.00;99.90;;;;;;5034410;28;20040;-70
2022/12/22 15:40:42;;;;;;;8.35;2.40;;;8.90;99.90;;;;;;5044269;28;20036;-70
2022/12/22 15:43:08;;;;;;;9.38;3.13;;;8.90;99.90;;;;;;5032821;28;20497;-70
2022/12/22 15:45:37;;;;;;;8.10;2.83;;;8.80;99.90;;;;;;5051900;28;20055;-70
2022/12/22 15:48:04;;;;;;;10.02;3.33;;;8.80;99.90;;;;;;5051911;28;20037;-70
2022/12/22 15:50:33;;;;;;;8.45;2.50;;;8.70;99.90;;;;;;5052128;28;20064;-70
2022/12/22 15:52:59;;;;;;;7.82;2.88;;;8.70;99.90;;;;;;5051518;28;20056;-70
2022/12/22 15:55:26;;;;;;;7.03;3.25;;;8.70;99.90;;;;;;5034991;28;20041;-70
2022/12/22 15:57:55;;;;;;;12.30;3.15;;;8.70;99.90;;;;;;5035406;28;20048;-70
2022/12/22 16:00:21;;;;;;;9.48;2.92;;;8.70;99.90;;;;;;5034644;28;20044;-70
2022/12/22 16:02:47;;;;;;;8.65;3.05;;;8.80;99.90;;;;;;5034679;28;20049;-70
2022/12/22 16:05:13;;;;;;;9.00;2.80;;;8.70;99.90;;;;;;5034922;28;20086;-70
2022/12/22 16:07:40;;;;;;;7.70;2.97;;;8.70;99.90;;;;;;5035323;28;20044;-70
2022/12/22 16:10:16;;;;;;;8.85;3.50;;;8.70;99.90;;;;;;5049087;28;20094;-70
2022/12/22 16:12:48;;;;;;;10.48;3.03;;;8.60;99.90;;;;;;5051138;28;20047;-70
2022/12/22 16:15:14;;;;;;;;;;;8.70;99.90;;;;;;5052237;28;20045;-70
2022/12/22 16:17:40;;;;;;;8.48;3.00;;;8.70;99.90;;;;;;5019291;28;19924;-70
2022/12/22 16:20:06;;;;;;;13.40;3.40;;;8.70;99.90;;;;;;5035148;28;20049;-70
2022/12/22 16:22:35;;;;;;;11.73;3.03;;;8.60;99.90;;;;;;5055332;28;20133;-70
2022/12/22 16:25:04;;;;;;;9.77;3.05;;;8.50;99.90;;;;;;5039183;28;20041;-70
2022/12/22 16:27:30;;;;;;;10.77;3.80;;;8.50;99.90;;;;;;5055444;28;20076;-70
2022/12/22 16:29:56;;;;;;;12.07;3.92;;;8.40;99.90;;;;;;5038697;28;20071;-70
2022/12/22 16:32:25;;;;;;;11.40;4.07;;;8.40;99.90;;;;;;5055569;28;20041;-69
2022/12/22 16:34:52;;;;;;;10.07;4.22;;;8.40;99.90;;;;;;5038316;28;20037;-70
2022/12/22 16:37:18;;;;;;;14.32;6.43;;;8.50;99.90;;;;;;5055464;28;20097;-70